createdAt,value
2022-11-15T00:00:12.788Z,355
2022-11-15T00:01:11.486Z,363
2022-11-15T00:02:11.177Z,354
2022-11-15T00:04:11.086Z,363
2022-11-15T00:05:11.166Z,375
2022-11-15T00:06:11.481Z,366
2022-11-15T00:07:18.031Z,361
2022-11-15T00:08:11.406Z,363
2022-11-15T00:09:10.870Z,366
2022-11-15T00:10:11.128Z,365
2022-11-15T00:11:11.029Z,356
2022-11-15T00:12:11.215Z,363
2022-11-15T00:13:11.153Z,359
2022-11-15T00:14:11.452Z,363
2022-11-15T00:15:11.902Z,366
2022-11-15T00:16:11.075Z,368
2022-11-15T00:17:11.408Z,375
2022-11-15T00:18:10.754Z,372
2022-11-15T00:19:11.185Z,368
2022-11-15T00:20:11.639Z,379
2022-11-15T00:21:11.315Z,376
2022-11-15T00:22:11.681Z,372
2022-11-15T00:23:11.342Z,368
2022-11-15T00:24:11.577Z,376
2022-11-15T00:25:11.111Z,372
2022-11-15T00:26:11.424Z,369
2022-11-15T00:27:11.223Z,377
2022-11-15T00:28:11.135Z,363
2022-11-15T00:29:11.099Z,357
2022-11-15T00:30:11.733Z,360
2022-11-15T00:31:10.917Z,372
2022-11-15T00:32:10.982Z,363
2022-11-15T00:33:11.191Z,370
2022-11-15T00:35:11.017Z,363
2022-11-15T00:36:11.260Z,370
2022-11-15T00:37:11.209Z,368
2022-11-15T00:38:11.333Z,365
2022-11-15T00:39:11.381Z,369
2022-11-15T00:40:11.370Z,366
2022-11-15T00:41:11.373Z,371
2022-11-15T00:42:11.560Z,362
2022-11-15T00:43:11.749Z,355
2022-11-15T00:45:11.430Z,361
2022-11-15T00:46:11.817Z,363
2022-11-15T00:47:10.957Z,366
2022-11-15T00:48:11.014Z,368
2022-11-15T00:49:11.108Z,373
2022-11-15T00:50:16.470Z,357
2022-11-15T00:51:11.569Z,363
2022-11-15T00:52:11.518Z,366
2022-11-15T00:53:11.172Z,365
2022-11-15T00:54:11.511Z,364
2022-11-15T00:55:11.692Z,369
2022-11-15T00:56:10.940Z,371
2022-11-15T00:57:11.190Z,375
2022-11-15T00:58:10.928Z,374
2022-11-15T00:59:10.916Z,366
2022-11-15T01:00:11.894Z,361
2022-11-15T01:01:13.311Z,371
2022-11-15T01:02:11.485Z,377
2022-11-15T01:03:11.251Z,379
2022-11-15T01:04:11.507Z,370
2022-11-15T01:05:11.358Z,364
2022-11-15T01:06:11.394Z,357
2022-11-15T01:07:11.380Z,363
2022-11-15T01:08:11.108Z,356
2022-11-15T01:09:11.081Z,380
2022-11-15T01:10:11.430Z,367
2022-11-15T01:12:11.131Z,371
2022-11-15T01:13:11.203Z,374
2022-11-15T01:14:25.686Z,370
2022-11-15T01:15:11.788Z,374
2022-11-15T01:16:10.855Z,366
2022-11-15T01:17:11.045Z,368
2022-11-15T01:18:25.761Z,365
2022-11-15T01:19:11.516Z,367
2022-11-15T01:20:10.832Z,364
2022-11-15T01:21:11.087Z,383
2022-11-15T01:22:11.049Z,376
2022-11-15T01:23:10.841Z,364
2022-11-15T01:25:11.598Z,367
2022-11-15T01:26:11.605Z,360
2022-11-15T01:27:10.871Z,370
2022-11-15T01:28:11.125Z,375
2022-11-15T01:29:11.196Z,349
2022-11-15T01:30:11.702Z,360
2022-11-15T01:31:10.921Z,359
2022-11-15T01:32:11.219Z,367
2022-11-15T01:33:11.701Z,368
2022-11-15T01:34:11.202Z,361
2022-11-15T01:35:11.608Z,363
2022-11-15T01:36:10.877Z,359
2022-11-15T01:37:11.125Z,368
2022-11-15T01:38:11.063Z,376
2022-11-15T01:39:11.280Z,363
2022-11-15T01:40:11.265Z,352
2022-11-15T01:41:11.380Z,353
2022-11-15T01:42:10.829Z,360
2022-11-15T01:43:11.093Z,363
2022-11-15T01:44:11.272Z,366
2022-11-15T01:45:12.160Z,368
2022-11-15T01:47:11.456Z,367
2022-11-15T01:48:10.870Z,375
2022-11-15T01:49:11.190Z,364
2022-11-15T01:50:11.198Z,359
2022-11-15T01:51:11.197Z,364
2022-11-15T01:52:11.410Z,362
2022-11-15T01:53:11.603Z,364
2022-11-15T01:54:11.155Z,362
2022-11-15T01:55:11.437Z,365
2022-11-15T01:56:11.233Z,355
2022-11-15T01:57:11.467Z,362
2022-11-15T01:58:11.013Z,367
2022-11-15T01:59:11.354Z,374
2022-11-15T02:00:11.372Z,373
2022-11-15T02:01:11.348Z,363
2022-11-15T02:02:11.366Z,361
2022-11-15T02:03:10.949Z,357
2022-11-15T02:04:11.662Z,363
2022-11-15T02:05:11.407Z,367
2022-11-15T02:06:11.611Z,357
2022-11-15T02:07:11.270Z,359
2022-11-15T02:08:11.691Z,357
2022-11-15T02:09:11.482Z,362
2022-11-15T02:10:11.176Z,370
2022-11-15T02:11:11.549Z,371
2022-11-15T02:12:10.907Z,364
2022-11-15T02:13:11.287Z,365
2022-11-15T02:14:11.030Z,372
2022-11-15T02:15:11.575Z,374
2022-11-15T02:16:11.103Z,368
2022-11-15T02:17:11.485Z,367
2022-11-15T02:18:11.360Z,364
2022-11-15T02:19:11.600Z,358
2022-11-15T02:22:11.075Z,363
2022-11-15T02:23:11.238Z,357
2022-11-15T02:24:11.025Z,366
2022-11-15T02:25:11.463Z,342
2022-11-15T02:26:11.003Z,364
2022-11-15T02:27:11.474Z,362
2022-11-15T02:28:11.182Z,364
2022-11-15T02:29:11.440Z,355
2022-11-15T02:30:12.199Z,351
2022-11-15T02:31:11.103Z,359
2022-11-15T02:32:11.390Z,374
2022-11-15T02:33:11.439Z,362
2022-11-15T02:34:11.803Z,356
2022-11-15T02:35:10.775Z,357
2022-11-15T02:36:10.897Z,360
2022-11-15T02:37:12.057Z,355
2022-11-15T02:38:10.743Z,356
2022-11-15T02:39:11.142Z,362
2022-11-15T02:40:11.405Z,361
2022-11-15T02:41:11.516Z,365
2022-11-15T02:42:11.388Z,357
2022-11-15T02:43:10.993Z,353
2022-11-15T02:44:10.874Z,365
2022-11-15T02:45:10.392Z,376
2022-11-15T02:46:11.103Z,360
2022-11-15T02:47:11.370Z,351
2022-11-15T02:48:11.523Z,352
2022-11-15T02:49:11.683Z,356
2022-11-15T02:50:11.065Z,368
2022-11-15T02:51:11.361Z,355
2022-11-15T02:52:11.246Z,346
2022-11-15T02:53:11.354Z,360
2022-11-15T02:54:11.782Z,363
2022-11-15T02:55:11.260Z,355
2022-11-15T02:56:11.378Z,354
2022-11-15T02:57:11.442Z,366
2022-11-15T02:58:10.850Z,373
2022-11-15T02:59:10.772Z,369
2022-11-15T03:00:11.441Z,356
2022-11-15T03:01:11.101Z,355
2022-11-15T03:02:11.453Z,352
2022-11-15T03:03:11.667Z,354
2022-11-15T03:04:10.808Z,364
2022-11-15T03:05:11.444Z,340
2022-11-15T03:06:11.042Z,349
2022-11-15T03:07:11.350Z,364
2022-11-15T03:08:11.688Z,372
2022-11-15T03:09:10.826Z,381
2022-11-15T03:10:11.205Z,392
2022-11-15T03:11:11.078Z,382
2022-11-15T03:12:11.280Z,378
2022-11-15T03:13:11.444Z,377
2022-11-15T03:14:10.749Z,378
2022-11-15T03:15:11.247Z,381
2022-11-15T03:16:11.549Z,366
2022-11-15T03:17:11.664Z,367
2022-11-15T03:19:10.980Z,363
2022-11-15T03:20:11.278Z,362
2022-11-15T03:21:11.285Z,355
2022-11-15T03:22:11.459Z,356
2022-11-15T03:23:11.734Z,350
2022-11-15T03:24:11.529Z,369
2022-11-15T03:25:11.640Z,373
2022-11-15T03:26:10.815Z,376
2022-11-15T03:27:11.018Z,368
2022-11-15T03:28:11.357Z,374
2022-11-15T03:29:11.328Z,379
2022-11-15T03:30:11.574Z,372
2022-11-15T03:31:11.502Z,366
2022-11-15T03:32:10.819Z,365
2022-11-15T03:33:11.067Z,375
2022-11-15T03:34:11.312Z,362
2022-11-15T03:35:11.339Z,358
2022-11-15T03:36:11.294Z,356
2022-11-15T03:37:25.673Z,359
2022-11-15T03:38:11.402Z,354
2022-11-15T03:39:13.224Z,353
2022-11-15T03:40:11.649Z,364
2022-11-15T03:41:10.754Z,366
2022-11-15T03:42:10.821Z,352
2022-11-15T03:43:11.767Z,356
2022-11-15T03:44:10.681Z,361
2022-11-15T03:46:11.228Z,363
2022-11-15T03:47:11.550Z,359
2022-11-15T03:48:11.003Z,366
2022-11-15T03:49:11.510Z,374
2022-11-15T03:50:11.724Z,366
2022-11-15T03:51:11.175Z,363
2022-11-15T03:52:11.359Z,365
2022-11-15T03:53:11.469Z,373
2022-11-15T03:54:11.802Z,368
2022-11-15T03:55:11.125Z,373
2022-11-15T03:56:11.445Z,363
2022-11-15T03:57:11.689Z,362
2022-11-15T03:58:10.768Z,352
2022-11-15T03:59:10.937Z,357
2022-11-15T04:00:11.807Z,366
2022-11-15T04:01:11.309Z,379
2022-11-15T04:02:11.008Z,384
2022-11-15T04:03:11.624Z,367
2022-11-15T04:04:10.787Z,365
2022-11-15T04:05:11.233Z,364
2022-11-15T04:06:11.593Z,361
2022-11-15T04:07:11.881Z,357
2022-11-15T04:08:10.752Z,363
2022-11-15T04:09:10.895Z,365
2022-11-15T04:10:11.358Z,359
2022-11-15T04:11:10.846Z,352
2022-11-15T04:12:11.282Z,353
2022-11-15T04:13:11.660Z,352
2022-11-15T04:14:10.805Z,355
2022-11-15T04:15:10.878Z,354
2022-11-15T04:16:11.068Z,362
2022-11-15T04:17:11.172Z,370
2022-11-15T04:18:11.153Z,366
2022-11-15T04:19:11.584Z,369
2022-11-15T04:21:11.267Z,355
2022-11-15T04:22:11.648Z,365
2022-11-15T04:23:11.103Z,355
2022-11-15T04:24:11.492Z,358
2022-11-15T04:25:11.015Z,370
2022-11-15T04:26:11.355Z,357
2022-11-15T04:27:11.593Z,356
2022-11-15T04:28:10.908Z,358
2022-11-15T04:29:11.042Z,355
2022-11-15T04:30:11.518Z,354
2022-11-15T04:31:10.694Z,364
2022-11-15T04:32:11.114Z,373
2022-11-15T04:33:11.542Z,376
2022-11-15T04:34:11.076Z,362
2022-11-15T04:35:11.538Z,361
2022-11-15T04:36:10.878Z,357
2022-11-15T04:37:10.879Z,349
2022-11-15T04:38:11.227Z,342
2022-11-15T04:39:11.354Z,371
2022-11-15T04:40:11.638Z,373
2022-11-15T04:41:10.974Z,362
2022-11-15T04:42:10.917Z,353
2022-11-15T04:43:11.072Z,367
2022-11-15T04:45:11.844Z,363
2022-11-15T04:46:11.025Z,360
2022-11-15T04:47:11.138Z,357
2022-11-15T04:48:11.479Z,353
2022-11-15T04:49:11.600Z,358
2022-11-15T04:50:10.905Z,365
2022-11-15T04:51:11.812Z,366
2022-11-15T04:52:11.355Z,363
2022-11-15T04:53:11.593Z,368
2022-11-15T04:55:11.093Z,357
2022-11-15T04:56:10.944Z,355
2022-11-15T04:57:11.013Z,362
2022-11-15T04:58:11.310Z,352
2022-11-15T04:59:11.553Z,364
2022-11-15T05:00:11.307Z,363
2022-11-15T05:02:11.367Z,362
2022-11-15T05:03:11.597Z,360
2022-11-15T05:04:11.058Z,370
2022-11-15T05:05:11.621Z,357
2022-11-15T05:06:10.849Z,358
2022-11-15T05:07:11.591Z,364
2022-11-15T05:08:11.183Z,370
2022-11-15T05:09:11.361Z,372
2022-11-15T05:10:11.481Z,354
2022-11-15T05:11:10.925Z,355
2022-11-15T05:12:11.410Z,357
2022-11-15T05:13:11.493Z,362
2022-11-15T05:14:11.636Z,361
2022-11-15T05:15:11.189Z,365
2022-11-15T05:16:11.548Z,357
2022-11-15T05:17:10.775Z,362
2022-11-15T05:18:11.338Z,363
2022-11-15T05:19:11.295Z,343
2022-11-15T05:20:11.167Z,357
2022-11-15T05:21:11.532Z,362
2022-11-15T05:22:10.972Z,363
2022-11-15T05:23:11.111Z,369
2022-11-15T05:25:11.707Z,365
2022-11-15T05:26:11.746Z,363
2022-11-15T05:27:10.998Z,354
2022-11-15T05:28:10.981Z,359
2022-11-15T05:29:11.318Z,362
2022-11-15T05:30:11.828Z,358
2022-11-15T05:31:11.399Z,362
2022-11-15T05:32:11.594Z,357
2022-11-15T05:33:10.736Z,354
2022-11-15T05:35:11.442Z,361
2022-11-15T05:36:11.447Z,367
2022-11-15T05:37:11.083Z,357
2022-11-15T05:38:11.560Z,391
2022-11-15T05:39:11.140Z,380
2022-11-15T05:40:11.880Z,375
2022-11-15T05:41:11.643Z,361
2022-11-15T05:43:11.406Z,363
2022-11-15T05:44:11.197Z,362
2022-11-15T05:45:12.009Z,363
2022-11-15T05:46:11.615Z,364
2022-11-15T05:47:12.110Z,361
2022-11-15T05:48:11.990Z,362
2022-11-15T05:49:11.651Z,380
2022-11-15T05:50:11.323Z,391
2022-11-15T05:51:11.170Z,383
2022-11-15T05:52:12.790Z,377
2022-11-15T05:53:11.165Z,376
2022-11-15T05:54:12.179Z,365
2022-11-15T05:55:12.027Z,360
2022-11-15T05:56:11.491Z,351
2022-11-15T05:57:11.312Z,380
2022-11-15T05:58:11.215Z,364
2022-11-15T05:59:10.544Z,360
2022-11-15T06:00:11.813Z,357
2022-11-15T06:01:11.566Z,349
2022-11-15T06:02:11.421Z,359
2022-11-15T06:03:11.260Z,363
2022-11-15T06:04:10.729Z,357
2022-11-15T06:05:11.720Z,361
2022-11-15T06:06:16.190Z,365
2022-11-15T06:07:11.792Z,362
2022-11-15T06:08:11.348Z,361
2022-11-15T06:09:12.094Z,356
2022-11-15T06:10:11.539Z,342
2022-11-15T06:11:11.127Z,343
2022-11-15T06:12:12.051Z,355
2022-11-15T06:13:11.790Z,361
2022-11-15T06:14:11.327Z,359
2022-11-15T06:15:12.500Z,358
2022-11-15T06:16:10.797Z,353
2022-11-15T06:17:11.654Z,358
2022-11-15T06:18:10.829Z,343
2022-11-15T06:19:11.476Z,356
2022-11-15T06:20:11.684Z,358
2022-11-15T06:21:11.027Z,359
2022-11-15T06:22:11.737Z,360
2022-11-15T06:23:11.515Z,354
2022-11-15T06:24:11.564Z,348
2022-11-15T06:25:11.769Z,353
2022-11-15T06:26:11.132Z,361
2022-11-15T06:27:12.160Z,359
2022-11-15T06:28:11.968Z,357
2022-11-15T06:29:11.832Z,351
2022-11-15T06:30:11.961Z,353
2022-11-15T06:31:12.112Z,363
2022-11-15T06:32:11.582Z,355
2022-11-15T06:35:11.264Z,354
2022-11-15T06:37:12.262Z,342
2022-11-15T06:38:10.952Z,339
2022-11-15T06:39:11.307Z,346
2022-11-15T06:40:11.213Z,356
2022-11-15T06:41:11.267Z,357
2022-11-15T06:42:10.909Z,361
2022-11-15T06:43:11.423Z,369
2022-11-15T06:45:10.904Z,372
2022-11-15T06:46:11.642Z,371
2022-11-15T06:47:12.042Z,374
2022-11-15T06:48:11.577Z,370
2022-11-15T06:49:11.946Z,358
2022-11-15T06:50:11.949Z,365
2022-11-15T06:51:12.221Z,355
2022-11-15T06:52:11.600Z,346
2022-11-15T06:53:12.468Z,351
2022-11-15T06:54:11.806Z,344
2022-11-15T06:55:12.176Z,353
2022-11-15T06:56:11.488Z,354
2022-11-15T06:57:12.039Z,367
2022-11-15T06:58:12.122Z,345
2022-11-15T06:59:11.774Z,356
2022-11-15T07:01:11.793Z,348
2022-11-15T07:02:11.881Z,352
2022-11-15T07:03:12.296Z,351
2022-11-15T07:04:11.416Z,359
2022-11-15T07:05:11.872Z,351
2022-11-15T07:06:11.683Z,356
2022-11-15T07:07:11.945Z,358
2022-11-15T07:08:10.897Z,362
2022-11-15T07:09:12.328Z,368
2022-11-15T07:10:11.580Z,367
2022-11-15T07:11:11.969Z,360
2022-11-15T07:12:12.248Z,361
2022-11-15T07:13:11.776Z,362
2022-11-15T07:14:11.908Z,361
2022-11-15T07:15:12.557Z,348
2022-11-15T07:16:11.751Z,353
2022-11-15T07:17:12.045Z,377
2022-11-15T07:18:12.588Z,365
2022-11-15T07:19:11.992Z,362
2022-11-15T07:20:11.396Z,367
2022-11-15T07:21:11.801Z,360
2022-11-15T07:22:11.753Z,352
2022-11-15T07:23:12.337Z,351
2022-11-15T07:24:11.677Z,357
2022-11-15T07:25:12.052Z,364
2022-11-15T07:26:12.182Z,356
2022-11-15T07:27:11.794Z,353
2022-11-15T07:28:12.273Z,349
2022-11-15T07:29:11.483Z,358
2022-11-15T07:30:14.499Z,364
2022-11-15T07:31:11.549Z,356
2022-11-15T07:32:11.952Z,349
2022-11-15T07:33:12.027Z,352
2022-11-15T07:34:12.319Z,347
2022-11-15T07:35:11.962Z,342
2022-11-15T07:36:12.301Z,377
2022-11-15T07:37:11.838Z,361
2022-11-15T07:38:12.204Z,352
2022-11-15T07:39:11.867Z,360
2022-11-15T07:40:12.857Z,356
2022-11-15T07:41:12.289Z,351
2022-11-15T07:42:11.983Z,347
2022-11-15T07:43:12.423Z,346
2022-11-15T07:44:11.732Z,348
2022-11-15T07:45:12.156Z,359
2022-11-15T07:46:12.011Z,358
2022-11-15T07:48:11.651Z,359
2022-11-15T07:49:12.142Z,353
2022-11-15T07:50:12.569Z,362
2022-11-15T07:51:14.162Z,364
2022-11-15T07:52:11.859Z,369
2022-11-15T07:53:11.769Z,364
2022-11-15T07:54:12.266Z,356
2022-11-15T07:55:12.280Z,352
2022-11-15T07:56:11.821Z,359
2022-11-15T07:57:12.406Z,367
2022-11-15T07:58:11.625Z,362
2022-11-15T07:59:11.713Z,355
2022-11-15T08:00:13.295Z,356
2022-11-15T08:01:12.184Z,353
2022-11-15T08:02:12.448Z,366
2022-11-15T08:03:11.859Z,364
2022-11-15T08:04:11.847Z,357
2022-11-15T08:05:12.451Z,360
2022-11-15T08:06:12.294Z,358
2022-11-15T08:07:16.844Z,359
2022-11-15T08:08:12.338Z,364
2022-11-15T08:09:17.054Z,360
2022-11-15T08:11:11.137Z,357
2022-11-15T08:12:11.147Z,358
2022-11-15T08:13:12.042Z,355
2022-11-15T08:14:11.188Z,356
2022-11-15T08:15:12.149Z,350
2022-11-15T08:16:11.636Z,356
2022-11-15T08:17:16.596Z,333
2022-11-15T08:18:12.116Z,347
2022-11-15T08:19:11.986Z,356
2022-11-15T08:20:11.688Z,351
2022-11-15T08:21:15.650Z,367
2022-11-15T08:22:12.066Z,363
2022-11-15T08:23:11.525Z,357
2022-11-15T08:24:11.330Z,359
2022-11-15T08:25:11.838Z,343
2022-11-15T08:26:11.576Z,340
2022-11-15T08:27:11.317Z,351
2022-11-15T08:28:11.446Z,355
2022-11-15T08:30:11.706Z,364
2022-11-15T08:31:11.459Z,361
2022-11-15T08:34:11.816Z,368
2022-11-15T08:35:12.239Z,369
2022-11-15T08:36:11.106Z,353
2022-11-15T08:37:11.872Z,356
2022-11-15T08:38:11.552Z,359
2022-11-15T08:39:11.506Z,350
2022-11-15T08:41:11.534Z,366
2022-11-15T08:42:15.705Z,369
2022-11-15T08:43:11.972Z,371
2022-11-15T08:44:12.101Z,369
2022-11-15T08:45:12.196Z,364
2022-11-15T08:46:11.756Z,356
2022-11-15T08:47:11.221Z,366
2022-11-15T08:49:11.637Z,354
2022-11-15T08:51:11.297Z,368
2022-11-15T08:52:11.136Z,362
2022-11-15T08:53:11.272Z,365
2022-11-15T08:54:11.621Z,357
2022-11-15T08:55:33.158Z,367
2022-11-15T08:56:11.372Z,348
2022-11-15T08:57:11.681Z,358
2022-11-15T08:58:11.725Z,346
2022-11-15T08:59:11.429Z,351
2022-11-15T09:00:12.795Z,359
2022-11-15T09:01:16.074Z,351
2022-11-15T09:02:11.604Z,359
2022-11-15T09:03:11.419Z,348
2022-11-15T09:04:11.097Z,351
2022-11-15T09:05:11.800Z,357
2022-11-15T09:06:11.860Z,362
2022-11-15T09:07:11.236Z,365
2022-11-15T09:08:40.433Z,364
2022-11-15T09:09:11.451Z,366
2022-11-15T09:10:12.443Z,354
2022-11-15T09:13:11.877Z,358
2022-11-15T09:14:11.952Z,367
2022-11-15T09:15:11.718Z,354
2022-11-15T09:16:11.378Z,344
2022-11-15T09:17:11.236Z,348
2022-11-15T09:18:11.682Z,353
2022-11-15T09:19:12.062Z,351
2022-11-15T09:20:12.044Z,352
2022-11-15T09:21:11.461Z,351
2022-11-15T09:23:11.233Z,354
2022-11-15T09:24:11.084Z,351
2022-11-15T09:25:11.903Z,353
2022-11-15T09:27:11.254Z,356
2022-11-15T09:28:11.464Z,358
2022-11-15T09:29:11.481Z,352
2022-11-15T09:30:11.391Z,347
2022-11-15T09:31:11.814Z,349
2022-11-15T09:32:11.426Z,343
2022-11-15T09:33:11.323Z,334
2022-11-15T09:34:12.430Z,365
2022-11-15T09:35:11.276Z,369
2022-11-15T09:36:12.074Z,358
2022-11-15T09:37:11.830Z,344
2022-11-15T09:38:11.414Z,347
2022-11-15T09:39:11.774Z,346
2022-11-15T09:41:11.502Z,344
2022-11-15T09:42:11.546Z,351
2022-11-15T09:43:11.702Z,356
2022-11-15T09:44:11.746Z,358
2022-11-15T09:45:12.008Z,351
2022-11-15T09:46:11.602Z,340
2022-11-15T09:47:11.468Z,341
2022-11-15T09:48:11.076Z,354
2022-11-15T09:49:11.194Z,344
2022-11-15T09:50:11.017Z,340
2022-11-15T09:51:11.770Z,337
2022-11-15T09:52:11.592Z,354
2022-11-15T09:53:12.550Z,351
2022-11-15T09:54:51.578Z,346
2022-11-15T09:55:11.415Z,345
2022-11-15T09:56:11.584Z,342
2022-11-15T09:57:16.013Z,349
2022-11-15T09:58:11.472Z,348
2022-11-15T09:59:11.429Z,349
2022-11-15T10:00:44.076Z,357
2022-11-15T10:01:12.167Z,355
2022-11-15T10:02:12.203Z,343
2022-11-15T10:03:11.382Z,349
2022-11-15T10:04:12.107Z,355
2022-11-15T10:05:11.334Z,367
2022-11-15T10:06:11.098Z,363
2022-11-15T10:07:11.350Z,355
2022-11-15T10:09:10.862Z,361
2022-11-15T10:10:11.917Z,350
2022-11-15T10:11:36.619Z,348
2022-11-15T10:12:11.535Z,352
2022-11-15T10:13:11.680Z,346
2022-11-15T10:14:11.173Z,345
2022-11-15T10:15:12.134Z,338
2022-11-15T10:16:11.261Z,331
2022-11-15T10:17:11.510Z,348
2022-11-15T10:18:10.754Z,358
2022-11-15T10:19:10.991Z,356
2022-11-15T10:20:11.510Z,361
2022-11-15T10:21:11.059Z,356
2022-11-15T10:22:12.008Z,358
2022-11-15T10:23:11.385Z,353
2022-11-15T10:24:11.554Z,352
2022-11-15T10:25:11.783Z,350
2022-11-15T10:26:11.305Z,351
2022-11-15T10:28:11.570Z,338
2022-11-15T10:29:11.742Z,345
2022-11-15T10:30:12.156Z,357
2022-11-15T10:31:14.387Z,354
2022-11-15T10:32:16.730Z,348
2022-11-15T10:33:11.760Z,357
2022-11-15T10:34:11.553Z,359
2022-11-15T10:35:11.526Z,347
2022-11-15T10:36:17.230Z,343
2022-11-15T10:37:11.946Z,342
2022-11-15T10:38:11.661Z,350
2022-11-15T10:39:11.855Z,354
2022-11-15T10:41:11.656Z,356
2022-11-15T10:42:15.330Z,353
2022-11-15T10:43:11.972Z,346
2022-11-15T10:44:12.101Z,345
2022-11-15T10:45:11.614Z,351
2022-11-15T10:47:11.611Z,349
2022-11-15T10:48:11.620Z,336
2022-11-15T10:49:11.562Z,356
2022-11-15T10:50:11.579Z,347
2022-11-15T10:51:11.666Z,350
2022-11-15T10:52:25.301Z,348
2022-11-15T10:54:25.677Z,343
2022-11-15T10:55:11.416Z,349
2022-11-15T10:56:25.477Z,358
2022-11-15T10:57:14.034Z,344
2022-11-15T10:58:25.553Z,339
2022-11-15T10:59:11.831Z,348
2022-11-15T11:00:12.483Z,344
2022-11-15T11:01:11.962Z,340
2022-11-15T11:02:11.916Z,351
2022-11-15T11:03:11.745Z,349
2022-11-15T11:04:12.536Z,339
2022-11-15T11:06:12.027Z,338
2022-11-15T11:07:11.903Z,350
2022-11-15T11:08:11.561Z,339
2022-11-15T11:09:12.160Z,344
2022-11-15T11:10:36.148Z,347
2022-11-15T11:11:11.648Z,345
2022-11-15T11:12:12.516Z,338
2022-11-15T11:13:12.365Z,340
2022-11-15T11:14:11.969Z,344
2022-11-15T11:15:12.094Z,337
2022-11-15T11:17:11.760Z,342
2022-11-15T11:18:12.195Z,347
2022-11-15T11:19:12.009Z,353
2022-11-15T11:20:12.028Z,346
2022-11-15T11:23:11.440Z,336
2022-11-15T11:24:11.975Z,343
2022-11-15T11:25:12.226Z,347
2022-11-15T11:26:12.020Z,352
2022-11-15T11:27:12.795Z,351
2022-11-15T11:28:12.368Z,343
2022-11-15T11:29:11.913Z,345
2022-11-15T11:30:13.077Z,354
2022-11-15T11:31:11.862Z,346
2022-11-15T11:33:12.321Z,344
2022-11-15T11:35:12.109Z,348
2022-11-15T11:37:11.404Z,351
2022-11-15T11:38:11.305Z,346
2022-11-15T11:39:11.440Z,340
2022-11-15T11:40:11.791Z,338
2022-11-15T11:42:11.563Z,333
2022-11-15T11:43:11.317Z,327
2022-11-15T11:44:11.432Z,360
2022-11-15T11:45:11.522Z,362
2022-11-15T11:46:11.619Z,353
2022-11-15T11:47:11.233Z,345
2022-11-15T11:48:12.079Z,338
2022-11-15T11:49:10.988Z,348
2022-11-15T11:51:11.975Z,344
2022-11-15T11:53:13.694Z,352
2022-11-15T11:54:11.453Z,356
2022-11-15T11:55:11.500Z,359
2022-11-15T11:56:12.053Z,351
2022-11-15T11:57:11.831Z,345
2022-11-15T11:58:11.751Z,336
2022-11-15T11:59:11.542Z,344
2022-11-15T12:00:12.182Z,339
2022-11-15T12:01:12.920Z,341
2022-11-15T12:02:12.094Z,350
2022-11-15T12:03:11.665Z,335
2022-11-15T12:04:11.825Z,339
2022-11-15T12:05:11.785Z,348
2022-11-15T12:06:11.612Z,343
2022-11-15T12:07:11.725Z,332
2022-11-15T12:08:11.778Z,346
2022-11-15T12:09:11.742Z,354
2022-11-15T12:11:11.817Z,346
2022-11-15T12:12:11.803Z,338
2022-11-15T12:13:11.391Z,329
2022-11-15T12:14:11.500Z,335
2022-11-15T12:15:11.349Z,339
2022-11-15T12:16:11.337Z,343
2022-11-15T12:17:11.406Z,351
2022-11-15T12:18:11.322Z,356
2022-11-15T12:19:11.074Z,351
2022-11-15T12:20:12.287Z,341
2022-11-15T12:21:11.617Z,337
2022-11-15T12:22:11.926Z,338
2022-11-15T12:23:12.279Z,348
2022-11-15T12:24:11.341Z,354
2022-11-15T12:25:11.516Z,353
2022-11-15T12:26:11.371Z,361
2022-11-15T12:27:11.569Z,360
2022-11-15T12:28:11.274Z,353
2022-11-15T12:29:11.296Z,349
2022-11-15T12:30:12.383Z,343
2022-11-15T12:31:11.932Z,350
2022-11-15T12:32:11.887Z,357
2022-11-15T12:33:11.576Z,347
2022-11-15T12:34:11.526Z,345
2022-11-15T12:35:11.487Z,349
2022-11-15T12:36:11.188Z,360
2022-11-15T12:37:12.189Z,349
2022-11-15T12:38:11.196Z,341
2022-11-15T12:40:12.017Z,351
2022-11-15T12:41:11.710Z,333
2022-11-15T12:42:12.043Z,334
2022-11-15T12:43:11.973Z,342
2022-11-15T12:44:11.447Z,353
2022-11-15T12:45:11.723Z,349
2022-11-15T12:46:11.349Z,350
2022-11-15T12:47:12.320Z,354
2022-11-15T12:48:11.972Z,348
2022-11-15T12:49:11.947Z,349
2022-11-15T12:50:11.720Z,338
2022-11-15T12:51:11.559Z,335
2022-11-15T12:52:11.610Z,330
2022-11-15T12:53:11.509Z,332
2022-11-15T12:54:11.195Z,331
2022-11-15T12:55:12.094Z,339
2022-11-15T12:56:11.404Z,345
2022-11-15T12:57:11.822Z,342
2022-11-15T12:58:11.804Z,334
2022-11-15T12:59:11.317Z,343
2022-11-15T13:00:11.381Z,357
2022-11-15T13:01:11.106Z,349
2022-11-15T13:02:11.902Z,352
2022-11-15T13:03:11.632Z,343
2022-11-15T13:04:11.268Z,352
2022-11-15T13:05:17.213Z,344
2022-11-15T13:06:11.827Z,334
2022-11-15T13:07:11.806Z,341
2022-11-15T13:08:11.917Z,347
2022-11-15T13:09:12.219Z,348
2022-11-15T13:10:12.013Z,344
2022-11-15T13:11:11.904Z,336
2022-11-15T13:12:12.034Z,340
2022-11-15T13:13:11.762Z,342
2022-11-15T13:14:11.624Z,340
2022-11-15T13:15:25.788Z,334
2022-11-15T13:16:11.621Z,348
2022-11-15T13:17:25.562Z,340
2022-11-15T13:18:12.185Z,343
2022-11-15T13:19:25.621Z,330
2022-11-15T13:20:11.040Z,333
2022-11-15T13:21:12.062Z,335
2022-11-15T13:22:11.951Z,341
2022-11-15T13:24:11.982Z,338
2022-11-15T13:25:11.878Z,334
2022-11-15T13:26:11.845Z,348
2022-11-15T13:27:25.488Z,351
2022-11-15T13:28:12.044Z,342
2022-11-15T13:29:11.799Z,336
2022-11-15T13:30:11.771Z,344
2022-11-15T13:31:30.471Z,346
2022-11-15T13:32:11.699Z,342
2022-11-15T13:33:11.399Z,335
2022-11-15T13:34:29.272Z,354
2022-11-15T13:35:11.388Z,327
2022-11-15T13:36:11.246Z,334
2022-11-15T13:37:11.282Z,338
2022-11-15T13:39:12.106Z,341
2022-11-15T13:40:12.098Z,347
2022-11-15T13:41:11.989Z,352
2022-11-15T13:42:11.415Z,339
2022-11-15T13:43:11.693Z,338
2022-11-15T13:44:11.928Z,345
2022-11-15T13:45:11.922Z,341
2022-11-15T13:46:12.238Z,335
2022-11-15T13:47:11.301Z,339
2022-11-15T13:48:11.485Z,336
2022-11-15T13:49:33.918Z,342
2022-11-15T13:50:12.517Z,344
2022-11-15T13:51:11.163Z,345
2022-11-15T13:52:11.877Z,340
2022-11-15T13:53:11.907Z,332
2022-11-15T13:54:11.628Z,340
2022-11-15T13:55:12.425Z,338
2022-11-15T13:56:11.313Z,340
2022-11-15T13:57:11.131Z,341
2022-11-15T13:58:14.180Z,337
2022-11-15T13:59:11.684Z,350
2022-11-15T14:00:12.504Z,356
2022-11-15T14:01:11.992Z,353
2022-11-15T14:02:12.047Z,345
2022-11-15T14:03:11.525Z,347
2022-11-15T14:04:11.344Z,337
2022-11-15T14:06:12.614Z,330
2022-11-15T14:07:11.550Z,340
2022-11-15T14:08:11.365Z,336
2022-11-15T14:09:11.467Z,320
2022-11-15T14:10:11.602Z,362
2022-11-15T14:11:11.207Z,330
2022-11-15T14:12:11.895Z,325
2022-11-15T14:13:11.830Z,322
2022-11-15T14:14:11.788Z,338
2022-11-15T14:15:11.722Z,345
2022-11-15T14:16:12.174Z,344
2022-11-15T14:17:11.905Z,340
2022-11-15T14:18:11.929Z,347
2022-11-15T14:19:11.726Z,345
2022-11-15T14:20:11.826Z,336
2022-11-15T14:21:12.043Z,345
2022-11-15T14:22:12.195Z,354
2022-11-15T14:23:11.789Z,344
2022-11-15T14:24:11.799Z,338
2022-11-15T14:25:11.430Z,344
2022-11-15T14:26:12.160Z,347
2022-11-15T14:27:11.818Z,358
2022-11-15T14:28:11.699Z,349
2022-11-15T14:29:11.339Z,343
2022-11-15T14:30:11.386Z,342
2022-11-15T14:31:11.027Z,334
2022-11-15T14:32:11.471Z,335
2022-11-15T14:33:11.476Z,327
2022-11-15T14:34:11.233Z,339
2022-11-15T14:35:11.829Z,343
2022-11-15T14:36:11.235Z,345
2022-11-15T14:37:11.063Z,346
2022-11-15T14:38:11.940Z,337
2022-11-15T14:39:11.224Z,343
2022-11-15T14:40:11.138Z,344
2022-11-15T14:41:11.004Z,331